Time;durP1;ratioP1;P1;durP2;ratioP2;P2;SDS_P1;SDS_P2;PMS_P1;PMS_P2;Temp;Humidity;BMP_temperature;BMP_pressure;BME280_temperature;BME280_humidity;BME280_pressure;Samples;Min_cycle;Max_cycle;Signal;HPM_P1;HPM_P2
2022/01/06 01:48:06;;;;;;;8.65;4.40;;;;;;;;;;5354815;24;20411;-68
2022/01/06 01:50:37;;;;;;;8.05;3.75;;;;;;;;;;4842120;29;20525;-68
2022/01/06 01:53:07;;;;;;;10.18;4.95;;;;;;;;;;4803457;29;20172;-68
2022/01/06 01:55:37;;;;;;;11.48;4.40;;;;;;;;;;4803447;29;20062;-69
2022/01/06 01:58:08;;;;;;;10.55;4.40;;;;;;;;;;4803038;29;20058;-69
2022/01/06 02:00:39;;;;;;;8.13;3.80;;;;;;;;;;4802968;29;20069;-68
2022/01/06 02:03:10;;;;;;;6.72;4.55;;;;;;;;;;4802779;29;20070;-69
2022/01/06 02:05:40;;;;;;;10.43;4.60;;;;;;;;;;4803470;29;20083;-68
2022/01/06 02:08:11;;;;;;;8.32;4.07;;;;;;;;;;4785306;30;20059;-68
2022/01/06 02:10:42;;;;;;;6.75;4.40;;;;;;;;;;4784993;30;20641;-68
2022/01/06 02:13:15;;;;;;;10.88;4.75;;;;;;;;;;4767343;30;20055;-68
2022/01/06 02:15:45;;;;;;;8.45;4.32;;;;;;;;;;4749490;30;20778;-68
2022/01/06 02:18:17;;;;;;;8.43;4.13;;;;;;;;;;4731788;30;20445;-68
2022/01/06 02:20:48;;;;;;;6.30;4.13;;;;;;;;;;4711082;30;20054;-69
2022/01/06 02:23:21;;;;;;;7.70;4.60;;;;;;;;;;4714278;30;20057;-68
2022/01/06 02:25:51;;;;;;;7.93;4.95;;;;;;;;;;4714458;30;20065;-69
2022/01/06 02:28:25;;;;;;;9.05;5.43;;;;;;;;;;4699641;30;20069;-68
2022/01/06 02:30:57;;;;;;;9.38;5.05;;;;;;;;;;4695503;30;20561;-69
2022/01/06 02:33:28;;;;;;;8.00;4.70;;;;;;;;;;4731631;30;20065;-69
2022/01/06 02:35:59;;;;;;;10.90;4.75;;;;;;;;;;4710799;30;20088;-68
2022/01/06 02:38:30;;;;;;;16.10;4.68;;;;;;;;;;4714199;30;20402;-68
2022/01/06 02:41:02;;;;;;;9.85;4.75;;;;;;;;;;4696649;30;20069;-68
2022/01/06 02:43:32;;;;;;;12.05;5.50;;;;;;;;;;4697088;30;20068;-68
2022/01/06 02:46:03;;;;;;;15.05;4.25;;;;;;;;;;4696848;30;20411;-68
2022/01/06 02:48:34;;;;;;;11.00;5.80;;;;;;;;;;4696403;30;20066;-68
2022/01/06 02:51:05;;;;;;;7.45;5.20;;;;;;;;;;4689430;30;20061;-68
2022/01/06 02:53:36;;;;;;;10.93;5.53;;;;;;;;;;4696800;30;20073;-68
2022/01/06 02:56:07;;;;;;;16.27;5.43;;;;;;;;;;4686868;30;20180;-68
2022/01/06 02:58:43;;;;;;;11.23;5.35;;;;;;;;;;4696569;30;20064;-67
2022/01/06 03:01:14;;;;;;;9.80;4.72;;;;;;;;;;4686009;30;20058;-67
2022/01/06 03:03:45;;;;;;;8.13;5.85;;;;;;;;;;4679624;30;20069;-68
2022/01/06 03:06:15;;;;;;;11.02;5.50;;;;;;;;;;4633484;30;20070;-68
2022/01/06 03:08:46;;;;;;;10.68;6.38;;;;;;;;;;4662552;30;20074;-68
2022/01/06 03:11:25;;;;;;;14.02;5.85;;;;;;;;;;4631633;30;20055;-68
2022/01/06 03:13:57;;;;;;;10.77;6.32;;;;;;;;;;4647637;30;20055;-68
2022/01/06 03:16:28;;;;;;;9.38;5.43;;;;;;;;;;4624482;30;20441;-68
2022/01/06 03:18:58;;;;;;;10.68;5.55;;;;;;;;;;4631549;30;20070;-68
2022/01/06 03:21:30;;;;;;;7.93;4.70;;;;;;;;;;4631838;30;20433;-68
2022/01/06 03:24:00;;;;;;;10.45;6.28;;;;;;;;;;4631968;30;20063;-69
2022/01/06 03:26:30;;;;;;;10.35;5.57;;;;;;;;;;4631851;30;20067;-68
2022/01/06 03:29:01;;;;;;;7.25;5.28;;;;;;;;;;4652558;30;20059;-68
2022/01/06 03:31:32;;;;;;;9.45;4.63;;;;;;;;;;4665360;30;20412;-68
2022/01/06 03:34:03;;;;;;;9.57;5.57;;;;;;;;;;4665339;30;20077;-68
2022/01/06 03:36:34;;;;;;;7.68;5.25;;;;;;;;;;4661952;30;20265;-69
2022/01/06 03:39:05;;;;;;;9.45;4.35;;;;;;;;;;4605098;31;20067;-68
2022/01/06 03:41:37;;;;;;;8.75;5.00;;;;;;;;;;4598372;31;20579;-68
2022/01/06 03:44:08;;;;;;;8.18;4.45;;;;;;;;;;4591433;31;20067;-70
2022/01/06 03:46:38;;;;;;;8.68;4.88;;;;;;;;;;4597740;31;20548;-71
2022/01/06 03:49:11;;;;;;;9.32;6.35;;;;;;;;;;4616566;31;20060;-68
2022/01/06 03:51:42;;;;;;;9.55;5.88;;;;;;;;;;4631159;31;20060;-68
2022/01/06 03:54:14;;;;;;;10.15;5.78;;;;;;;;;;4648005;30;20066;-68
2022/01/06 03:56:47;;;;;;;14.77;6.15;;;;;;;;;;4633849;30;20184;-68
2022/01/06 09:29:35;;;;;;;9.75;5.60;;;;;;;;;;5633510;24;20058;-67
2022/01/06 09:32:07;;;;;;;8.00;4.97;;;;;;;;;;4824584;29;20065;-67
2022/01/06 09:34:37;;;;;;;11.80;5.55;;;;;;;;;;4824577;29;20050;-68
2022/01/06 09:37:07;;;;;;;6.03;3.80;;;;;;;;;;4824488;29;20054;-68
2022/01/06 09:39:38;;;;;;;10.00;4.13;;;;;;;;;;4824453;29;20054;-68
2022/01/06 09:42:10;;;;;;;11.13;4.93;;;;;;;;;;4825383;29;20053;-68
2022/01/06 09:44:41;;;;;;;7.82;4.78;;;;;;;;;;4795119;29;20066;-67
2022/01/06 09:47:12;;;;;;;10.85;4.75;;;;;;;;;;4839920;29;20083;-67
2022/01/06 09:50:02;;;;;;;8.82;4.55;;;;;;;;;;4840174;29;20235;-67
2022/01/06 09:52:34;;;;;;;7.75;4.25;;;;;;;;;;4809721;29;20066;-68
2022/01/06 09:55:06;;;;;;;6.00;3.60;;;;;;;;;;4840094;29;20066;-68
2022/01/06 09:57:36;;;;;;;7.25;3.28;;;;;;;;;;4840222;29;20053;-68
2022/01/06 10:00:11;;;;;;;8.70;3.63;;;;;;;;;;4825625;29;20423;-67
2022/01/06 10:02:42;;;;;;;8.43;3.78;;;;;;;;;;4839808;29;20152;-67
2022/01/06 10:05:13;;;;;;;8.75;4.55;;;;;;;;;;4839998;29;20077;-68
2022/01/06 10:07:43;;;;;;;5.32;3.10;;;;;;;;;;4803191;29;20124;-68
2022/01/06 10:10:15;;;;;;;4.72;2.80;;;;;;;;;;4803748;29;20407;-67
2022/01/06 10:12:59;;;;;;;8.80;3.10;;;;;;;;;;4744253;29;20062;-68
2022/01/06 10:15:30;;;;;;;28.48;17.45;;;;;;;;;;4788694;29;20495;-70
2022/01/06 10:18:10;;;;;;;6.53;2.63;;;;;;;;;;4767323;30;20416;-68
2022/01/06 10:20:42;;;;;;;10.15;3.10;;;;;;;;;;4734077;30;20064;-67
2022/01/06 10:23:15;;;;;;;10.68;3.03;;;;;;;;;;4702729;30;20071;-67
2022/01/06 10:25:49;;;;;;;4.10;2.78;;;;;;;;;;4765094;30;20056;-68
2022/01/06 10:28:25;;;;;;;6.53;3.70;;;;;;;;;;4767397;30;20063;-68
2022/01/06 10:30:55;;;;;;;5.38;2.05;;;;;;;;;;4753065;30;20068;-67
2022/01/06 10:33:36;;;;;;;4.60;2.03;;;;;;;;;;4767656;30;20063;-70
2022/01/06 10:36:08;;;;;;;5.25;2.17;;;;;;;;;;4767498;30;20059;-67
2022/01/06 10:38:39;;;;;;;5.38;2.88;;;;;;;;;;4731756;30;20053;-68
2022/01/06 10:41:17;;;;;;;5.65;2.30;;;;;;;;;;4731868;30;20088;-69
2022/01/06 10:43:52;;;;;;;4.53;1.95;;;;;;;;;;4693671;30;20073;-69
2022/01/06 10:46:34;;;;;;;4.68;2.30;;;;;;;;;;4695593;30;20072;-68
2022/01/06 10:49:11;;;;;;;4.53;2.75;;;;;;;;;;4731492;30;20068;-68
2022/01/06 10:51:51;;;;;;;7.38;2.58;;;;;;;;;;4682211;30;20099;-69
2022/01/06 10:54:25;;;;;;;7.15;2.67;;;;;;;;;;4696707;30;20170;-69
2022/01/06 10:57:01;;;;;;;4.57;1.90;;;;;;;;;;4731831;30;20104;-69
2022/01/06 10:59:33;;;;;;;7.40;2.30;;;;;;;;;;4714479;30;20053;-69
2022/01/06 11:02:05;;;;;;;3.42;1.70;;;;;;;;;;4685219;30;20061;-68
2022/01/06 11:04:36;;;;;;;5.20;2.30;;;;;;;;;;4700040;30;20414;-68
2022/01/06 11:07:08;;;;;;;5.97;1.50;;;;;;;;;;4714023;30;20061;-68
2022/01/06 11:09:40;;;;;;;11.05;2.60;;;;;;;;;;4699527;30;20057;-68
2022/01/06 11:12:30;;;;;;;4.45;2.38;;;;;;;;;;4714297;30;20573;-69
2022/01/06 11:15:01;;;;;;;7.90;2.13;;;;;;;;;;4696691;30;20065;-69
2022/01/06 11:17:32;;;;;;;4.65;1.95;;;;;;;;;;4748881;30;20547;-68
2022/01/06 11:20:03;;;;;;;2.90;2.03;;;;;;;;;;4749082;30;20064;-68
2022/01/06 11:22:34;;;;;;;8.73;3.28;;;;;;;;;;4715158;30;20065;-69
2022/01/06 11:25:04;;;;;;;11.48;8.85;;;;;;;;;;4710715;30;20419;-68
2022/01/06 11:27:37;;;;;;;6.35;3.80;;;;;;;;;;4711916;30;20064;-68
2022/01/06 11:30:11;;;;;;;;;;;;;;;;;;4743038;30;20056;-68
2022/01/06 11:32:43;;;;;;;3.67;2.65;;;;;;;;;;4734583;30;19933;-67
2022/01/06 11:35:20;;;;;;;5.57;2.20;;;;;;;;;;4740327;30;20063;-68
2022/01/06 11:37:52;;;;;;;5.57;3.13;;;;;;;;;;4769895;30;20058;-69
2022/01/06 11:40:32;;;;;;;3.22;2.00;;;;;;;;;;4770019;30;20528;-69
2022/01/06 11:43:03;;;;;;;3.80;2.38;;;;;;;;;;4770022;30;20071;-68
2022/01/06 11:45:33;;;;;;;7.53;1.95;;;;;;;;;;4755597;30;20060;-68
2022/01/06 11:48:17;;;;;;;5.63;2.05;;;;;;;;;;4752147;30;20060;-68
2022/01/06 11:50:51;;;;;;;4.55;1.80;;;;;;;;;;4752430;30;20083;-68
2022/01/06 11:53:32;;;;;;;5.60;2.47;;;;;;;;;;4739970;30;20067;-68
2022/01/06 11:56:13;;;;;;;5.13;2.40;;;;;;;;;;4719238;30;20053;-68
2022/01/06 11:58:56;;;;;;;3.25;2.10;;;;;;;;;;4716853;30;20072;-69
2022/01/06 12:01:28;;;;;;;3.17;2.10;;;;;;;;;;4716566;30;20061;-69
2022/01/06 12:03:58;;;;;;;3.72;2.22;;;;;;;;;;4734498;30;20061;-68
2022/01/06 12:06:34;;;;;;;7.82;2.80;;;;;;;;;;4734063;30;20072;-67
2022/01/06 12:09:16;;;;;;;5.30;2.13;;;;;;;;;;4751753;30;20082;-66
2022/01/06 12:11:47;;;;;;;4.22;2.78;;;;;;;;;;4752470;30;20091;-68
2022/01/06 12:14:26;;;;;;;4.50;1.80;;;;;;;;;;4704507;30;20064;-68
2022/01/06 12:17:05;;;;;;;7.45;2.70;;;;;;;;;;4733812;30;20548;-68
2022/01/06 12:19:37;;;;;;;7.10;2.10;;;;;;;;;;4733952;30;20068;-69
2022/01/06 12:22:11;;;;;;;7.82;3.08;;;;;;;;;;4733987;30;20068;-68
2022/01/06 12:24:41;;;;;;;3.97;2.38;;;;;;;;;;4690822;30;20065;-66
2022/01/06 12:27:12;;;;;;;5.75;2.60;;;;;;;;;;4733850;30;20072;-69
2022/01/06 12:29:43;;;;;;;4.93;2.30;;;;;;;;;;4733405;30;20060;-69
2022/01/06 12:32:13;;;;;;;3.80;2.05;;;;;;;;;;4715885;30;20547;-68
2022/01/06 12:34:54;;;;;;;4.15;1.88;;;;;;;;;;4703252;30;20068;-68
2022/01/06 12:37:29;;;;;;;5.95;2.15;;;;;;;;;;4715767;30;20061;-68
2022/01/06 12:40:00;;;;;;;3.00;1.38;;;;;;;;;;4716231;30;20102;-68
2022/01/06 12:42:30;;;;;;;4.22;2.03;;;;;;;;;;4716084;30;20057;-69
2022/01/06 12:45:07;;;;;;;3.13;1.75;;;;;;;;;;4715538;30;20061;-68
2022/01/06 12:47:47;;;;;;;5.00;1.73;;;;;;;;;;4715902;30;20065;-68
2022/01/06 12:50:17;;;;;;;3.13;1.50;;;;;;;;;;4715993;30;20057;-68
2022/01/06 12:52:49;;;;;;;6.38;2.00;;;;;;;;;;4687122;30;20061;-67
2022/01/06 12:55:20;;;;;;;3.08;2.00;;;;;;;;;;4684216;30;20541;-68
2022/01/06 12:57:51;;;;;;;7.93;1.58;;;;;;;;;;4698396;30;20065;-68
2022/01/06 13:00:25;;;;;;;3.47;1.60;;;;;;;;;;4680864;30;20550;-68
2022/01/06 13:03:02;;;;;;;3.15;1.80;;;;;;;;;;4652413;30;20085;-68
2022/01/06 13:05:35;;;;;;;2.95;1.92;;;;;;;;;;4681051;30;20070;-68
2022/01/06 13:08:06;;;;;;;4.35;1.90;;;;;;;;;;4667426;30;20065;-69
2022/01/06 13:10:37;;;;;;;5.20;2.30;;;;;;;;;;4664050;30;20077;-68
2022/01/06 13:13:07;;;;;;;8.90;4.20;;;;;;;;;;4664289;30;20503;-68
2022/01/06 13:15:37;;;;;;;9.93;3.88;;;;;;;;;;4689734;30;20507;-69
2022/01/06 13:18:07;;;;;;;4.45;2.10;;;;;;;;;;4669726;30;20068;-68
2022/01/06 13:20:40;;;;;;;7.80;3.00;;;;;;;;;;4669579;30;20069;-68
2022/01/06 13:26:08;;;;;;;5.40;2.58;;;;;;;;;;4714516;30;20056;-68
2022/01/06 13:28:38;;;;;;;8.63;4.43;;;;;;;;;;4750202;30;20071;-69
2022/01/06 13:31:21;;;;;;;4.53;2.20;;;;;;;;;;4732450;30;20115;-68
2022/01/06 13:33:56;;;;;;;7.30;3.30;;;;;;;;;;4747984;30;20075;-69
2022/01/06 13:36:32;;;;;;;4.82;1.83;;;;;;;;;;4766498;30;20071;-69
2022/01/06 13:39:11;;;;;;;5.72;2.03;;;;;;;;;;4800433;29;20117;-69
2022/01/06 13:41:47;;;;;;;2.60;1.42;;;;;;;;;;4804220;29;20061;-68
2022/01/06 13:44:18;;;;;;;5.97;2.42;;;;;;;;;;4803958;29;20050;-67
2022/01/06 13:47:19;;;;;;;5.20;2.60;;;;;;;;;;4774239;29;20069;-69
2022/01/06 13:52:40;;;;;;;4.68;2.00;;;;;;;;;;4803818;29;20051;-70
2022/01/06 13:55:16;;;;;;;6.60;2.55;;;;;;;;;;4803970;29;20916;-68
2022/01/06 13:57:46;;;;;;;3.65;2.67;;;;;;;;;;4773459;29;20528;-69
2022/01/06 14:00:18;;;;;;;5.38;1.88;;;;;;;;;;4785611;30;20436;-68
2022/01/06 14:02:48;;;;;;;3.50;2.03;;;;;;;;;;4785572;30;20539;-69
2022/01/06 14:05:20;;;;;;;4.68;1.70;;;;;;;;;;4767637;30;20063;-68
2022/01/06 14:07:51;;;;;;;4.20;2.00;;;;;;;;;;4722692;30;20064;-71
2022/01/06 14:10:21;;;;;;;6.47;2.00;;;;;;;;;;4767652;30;20576;-69
2022/01/06 14:12:54;;;;;;;4.05;2.22;;;;;;;;;;4767656;30;20068;-70
2022/01/06 14:15:25;;;;;;;3.97;1.98;;;;;;;;;;4767768;30;20051;-69
2022/01/06 14:17:55;;;;;;;4.15;2.28;;;;;;;;;;4767520;30;20060;-70
2022/01/06 14:20:25;;;;;;;4.40;1.98;;;;;;;;;;4778362;30;20490;-69
2022/01/06 14:22:56;;;;;;;3.00;2.15;;;;;;;;;;4745954;30;20052;-68
2022/01/06 14:25:27;;;;;;;4.80;2.22;;;;;;;;;;4732062;30;20056;-69
2022/01/06 14:27:58;;;;;;;4.55;2.00;;;;;;;;;;4732038;30;20510;-66
2022/01/06 14:30:28;;;;;;;4.63;2.22;;;;;;;;;;4731856;30;20494;-68
2022/01/06 14:32:59;;;;;;;2.72;1.80;;;;;;;;;;4731711;30;20060;-69
2022/01/06 14:35:33;;;;;;;2.90;2.05;;;;;;;;;;4746478;30;20080;-69
2022/01/06 14:38:05;;;;;;;3.25;1.88;;;;;;;;;;4718565;30;20071;-67
2022/01/06 14:40:35;;;;;;;3.97;1.90;;;;;;;;;;4697016;30;20068;-68
2022/01/06 14:43:11;;;;;;;6.05;2.25;;;;;;;;;;4714047;30;20057;-68
2022/01/06 14:45:42;;;;;;;4.13;1.77;;;;;;;;;;4714322;30;20410;-68
2022/01/06 14:48:12;;;;;;;4.57;2.38;;;;;;;;;;4714245;30;20503;-70
2022/01/06 14:50:43;;;;;;;4.38;2.00;;;;;;;;;;4731861;30;20068;-67
2022/01/06 14:53:13;;;;;;;3.65;1.98;;;;;;;;;;4731679;30;20064;-66
2022/01/06 14:55:44;;;;;;;3.10;1.85;;;;;;;;;;4732179;30;20068;-69
2022/01/06 14:58:14;;;;;;;2.85;1.98;;;;;;;;;;4731695;30;20065;-68
2022/01/06 15:00:44;;;;;;;3.55;2.08;;;;;;;;;;4741888;30;20056;-71
2022/01/06 15:03:20;;;;;;;4.30;1.58;;;;;;;;;;4749321;30;20413;-69
2022/01/06 15:05:56;;;;;;;2.58;1.90;;;;;;;;;;4749502;30;20505;-68
2022/01/06 15:08:27;;;;;;;4.03;1.83;;;;;;;;;;4731757;30;20052;-69
2022/01/06 15:10:57;;;;;;;3.42;2.05;;;;;;;;;;4763829;30;20517;-67
2022/01/06 15:13:27;;;;;;;4.22;1.80;;;;;;;;;;4770624;30;20068;-67
2022/01/06 15:15:58;;;;;;;2.40;1.85;;;;;;;;;;4781277;30;20525;-66
2022/01/06 15:18:28;;;;;;;2.55;1.70;;;;;;;;;;4788383;30;20062;-66
2022/01/06 15:21:01;;;;;;;2.70;1.60;;;;;;;;;;4758577;30;20535;-66
2022/01/06 15:23:31;;;;;;;4.30;2.20;;;;;;;;;;4788207;30;20051;-65
2022/01/06 15:26:24;;;;;;;3.45;1.80;;;;;;;;;;4788348;30;20063;-67
2022/01/06 15:28:54;;;;;;;3.30;1.70;;;;;;;;;;4787958;30;20056;-65
2022/01/06 15:31:25;;;;;;;3.85;2.03;;;;;;;;;;4788067;30;20059;-68
2022/01/06 15:33:56;;;;;;;5.68;1.80;;;;;;;;;;4772993;30;20067;-66
2022/01/06 15:36:26;;;;;;;8.75;1.80;;;;;;;;;;4788215;30;20071;-66
2022/01/06 15:38:56;;;;;;;2.50;1.75;;;;;;;;;;4769902;30;20052;-66
2022/01/06 15:41:28;;;;;;;3.05;1.70;;;;;;;;;;4769841;30;20066;-65
2022/01/06 15:43:58;;;;;;;3.97;2.17;;;;;;;;;;4769806;30;20067;-65
2022/01/06 15:46:29;;;;;;;;;;;;;;;;;;4758528;30;20555;-66
2022/01/06 15:49:01;;;;;;;2.67;1.77;;;;;;;;;;4752484;30;19930;-65
2022/01/06 15:51:31;;;;;;;2.63;1.90;;;;;;;;;;4752207;30;20060;-65
2022/01/06 15:54:07;;;;;;;6.72;2.20;;;;;;;;;;4752117;30;20091;-65
2022/01/06 15:56:38;;;;;;;4.85;1.55;;;;;;;;;;4752095;30;20056;-66
2022/01/06 15:59:09;;;;;;;4.00;2.00;;;;;;;;;;4751973;30;20060;-66
2022/01/06 16:07:20;;;;;;;2.13;1.55;;;;;;;;;;4751452;30;20052;-67
2022/01/06 16:09:50;;;;;;;5.20;3.55;;;;;;;;;;4752075;30;20748;-66
2022/01/06 16:12:20;;;;;;;3.38;2.22;;;;;;;;;;4722487;30;20071;-66
2022/01/06 16:14:51;;;;;;;2.80;1.60;;;;;;;;;;4751794;30;20167;-64
2022/01/06 16:17:21;;;;;;;2.58;1.52;;;;;;;;;;4740395;30;20075;-68
2022/01/06 16:19:51;;;;;;;6.78;1.55;;;;;;;;;;4783758;29;20064;-66
2022/01/06 16:22:22;;;;;;;3.20;1.35;;;;;;;;;;4768836;30;20066;-67
2022/01/06 16:24:52;;;;;;;3.28;1.73;;;;;;;;;;4769533;30;20081;-67
2022/01/06 16:27:23;;;;;;;4.28;2.25;;;;;;;;;;4754658;30;20607;-67
2022/01/06 16:30:05;;;;;;;3.47;1.70;;;;;;;;;;4769181;30;20067;-65
2022/01/06 16:32:35;;;;;;;3.58;1.98;;;;;;;;;;4725628;30;20525;-64
2022/01/06 16:35:07;;;;;;;4.43;2.83;;;;;;;;;;4769305;30;20551;-66
2022/01/06 16:37:39;;;;;;;;;;;;;;;;;;4740130;30;20056;-65
2022/01/06 16:40:10;;;;;;;2.75;1.55;;;;;;;;;;4769299;30;19970;-65
2022/01/06 16:42:41;;;;;;;4.28;1.73;;;;;;;;;;4754262;30;20059;-66
2022/01/06 16:45:12;;;;;;;3.83;1.65;;;;;;;;;;4768385;29;20504;-66
2022/01/06 16:47:42;;;;;;;3.65;1.80;;;;;;;;;;4760153;29;20059;-64
2022/01/06 16:50:12;;;;;;;3.38;1.85;;;;;;;;;;4805010;29;20066;-66
2022/01/06 16:52:43;;;;;;;2.63;1.50;;;;;;;;;;4786460;29;20063;-66
2022/01/06 16:55:14;;;;;;;2.50;1.10;;;;;;;;;;4771811;29;20681;-67
2022/01/06 16:57:45;;;;;;;3.00;1.45;;;;;;;;;;4786725;29;20071;-66
2022/01/06 17:00:15;;;;;;;4.18;2.13;;;;;;;;;;4761453;30;20059;-67
2022/01/06 17:02:47;;;;;;;3.22;1.65;;;;;;;;;;4769105;30;20077;-66
2022/01/06 17:05:19;;;;;;;4.57;1.55;;;;;;;;;;4768623;30;20071;-66
2022/01/06 17:07:55;;;;;;;2.67;1.40;;;;;;;;;;4753970;30;20516;-66
2022/01/06 17:10:26;;;;;;;2.55;1.60;;;;;;;;;;4768686;30;20070;-64
2022/01/06 17:12:57;;;;;;;2.63;1.65;;;;;;;;;;4768619;30;20496;-65
2022/01/06 17:15:27;;;;;;;3.08;1.55;;;;;;;;;;4753859;30;20056;-66
2022/01/06 17:17:58;;;;;;;2.58;1.88;;;;;;;;;;4782821;29;20068;-65
2022/01/06 17:20:28;;;;;;;3.15;1.83;;;;;;;;;;4743972;30;20075;-66
2022/01/06 17:22:59;;;;;;;4.03;1.60;;;;;;;;;;4721588;30;20178;-66
2022/01/06 17:25:29;;;;;;;2.30;1.50;;;;;;;;;;4750689;30;20105;-66
2022/01/06 17:28:01;;;;;;;4.80;1.67;;;;;;;;;;4750485;30;20060;-66
2022/01/06 17:30:32;;;;;;;4.95;1.50;;;;;;;;;;4756220;30;20078;-67
2022/01/06 17:33:02;;;;;;;1.88;1.38;;;;;;;;;;4786055;29;20051;-66
2022/01/06 17:35:33;;;;;;;2.58;1.52;;;;;;;;;;4771298;29;20056;-65
2022/01/06 17:38:04;;;;;;;5.53;2.03;;;;;;;;;;4808180;29;20065;-66
2022/01/06 17:40:37;;;;;;;6.80;1.90;;;;;;;;;;4824189;29;20054;-67
2022/01/06 17:43:07;;;;;;;2.53;1.88;;;;;;;;;;4777147;29;20050;-66
2022/01/06 17:45:38;;;;;;;3.15;1.67;;;;;;;;;;4824227;29;20051;-65
2022/01/06 17:48:09;;;;;;;4.15;1.60;;;;;;;;;;4824480;29;20050;-66
2022/01/06 17:50:40;;;;;;;2.28;1.60;;;;;;;;;;4793143;29;20058;-65
2022/01/06 17:53:11;;;;;;;2.35;1.80;;;;;;;;;;4760425;29;20046;-63
2022/01/06 17:55:42;;;;;;;3.65;1.65;;;;;;;;;;4803821;29;20109;-65
2022/01/06 17:58:13;;;;;;;5.43;1.80;;;;;;;;;;4785710;29;20059;-64
2022/01/06 18:00:50;;;;;;;2.47;1.20;;;;;;;;;;4785776;29;20067;-66
2022/01/06 18:03:21;;;;;;;2.97;1.75;;;;;;;;;;4756140;30;20527;-66
2022/01/06 18:05:56;;;;;;;2.88;1.73;;;;;;;;;;4785558;29;20055;-65
2022/01/06 18:14:00;;;;;;;2.40;1.58;;;;;;;;;;4767553;30;20524;-66
2022/01/06 18:16:31;;;;;;;3.58;1.55;;;;;;;;;;4767690;30;20065;-67
2022/01/06 18:19:01;;;;;;;2.15;1.40;;;;;;;;;;4749375;30;20063;-67
2022/01/06 18:21:32;;;;;;;3.38;1.60;;;;;;;;;;4749822;30;20068;-66
2022/01/06 18:24:07;;;;;;;3.05;1.50;;;;;;;;;;4717062;30;20049;-67
2022/01/06 18:26:39;;;;;;;2.38;1.40;;;;;;;;;;4702424;30;20057;-69
2022/01/06 18:29:09;;;;;;;;;;;;;;;;;;4732398;30;20064;-65
2022/01/06 18:31:40;;;;;;;2.00;1.23;;;;;;;;;;4714325;30;19927;-66
2022/01/06 18:34:11;;;;;;;2.70;1.92;;;;;;;;;;4728575;30;20418;-67
2022/01/06 18:36:42;;;;;;;2.28;1.60;;;;;;;;;;4696679;30;20053;-66
2022/01/06 18:39:13;;;;;;;5.90;1.40;;;;;;;;;;4714392;30;20076;-65
2022/01/06 18:41:43;;;;;;;3.47;1.45;;;;;;;;;;4714420;30;20570;-67
2022/01/06 18:44:13;;;;;;;1.85;1.40;;;;;;;;;;4713558;30;20069;-70
2022/01/06 18:46:45;;;;;;;4.15;1.90;;;;;;;;;;4701339;30;20459;-66
2022/01/06 18:49:15;;;;;;;2.63;1.55;;;;;;;;;;4696825;30;20468;-66
2022/01/06 18:51:46;;;;;;;3.45;1.17;;;;;;;;;;4697012;30;20072;-65
2022/01/06 18:54:17;;;;;;;1.83;1.13;;;;;;;;;;4714041;30;20076;-66
2022/01/06 18:56:48;;;;;;;3.92;1.13;;;;;;;;;;4704676;30;20406;-68
2022/01/06 18:59:18;;;;;;;2.08;1.38;;;;;;;;;;4696805;30;20065;-67
2022/01/06 19:01:49;;;;;;;4.05;1.20;;;;;;;;;;4696778;30;20451;-67
2022/01/06 19:04:19;;;;;;;1.70;1.23;;;;;;;;;;4696993;30;20066;-67
2022/01/06 19:06:50;;;;;;;3.45;1.42;;;;;;;;;;4696482;30;20064;-68
2022/01/06 19:09:21;;;;;;;2.22;1.08;;;;;;;;;;4701702;30;20058;-66
2022/01/06 19:12:12;;;;;;;2.25;1.38;;;;;;;;;;4691295;30;20070;-68
2022/01/06 19:14:42;;;;;;;2.08;1.20;;;;;;;;;;4704836;30;20060;-67
2022/01/06 19:17:12;;;;;;;1.05;0.68;;;;;;;;;;4696949;30;20426;-66
2022/01/06 19:19:43;;;;;;;2.45;1.48;;;;;;;;;;4719723;30;20061;-66
2022/01/06 19:22:13;;;;;;;5.45;1.27;;;;;;;;;;4754784;30;20067;-66
2022/01/06 19:24:43;;;;;;;1.85;1.00;;;;;;;;;;4766887;30;20589;-66
2022/01/06 19:27:14;;;;;;;2.13;1.08;;;;;;;;;;4767097;30;20068;-66
2022/01/06 19:29:46;;;;;;;4.60;0.98;;;;;;;;;;4731166;30;20053;-65
2022/01/06 19:32:37;;;;;;;;;;;;;;;;;;4700092;30;20069;-66
2022/01/06 19:35:07;;;;;;;2.13;1.65;;;;;;;;;;4679178;30;19972;-64
2022/01/06 19:37:38;;;;;;;1.35;1.10;;;;;;;;;;4661841;30;20059;-66
2022/01/06 19:40:11;;;;;;;2.60;1.85;;;;;;;;;;4662399;30;20070;-67
2022/01/06 19:42:44;;;;;;;3.50;1.50;;;;;;;;;;4662286;30;20192;-65
2022/01/06 19:45:16;;;;;;;1.50;0.77;;;;;;;;;;4662411;30;20508;-65
2022/01/06 19:47:48;;;;;;;3.60;1.27;;;;;;;;;;4648134;30;20167;-66
2022/01/06 19:50:19;;;;;;;3.42;1.10;;;;;;;;;;4645256;30;20429;-66
2022/01/06 19:52:50;;;;;;;1.02;0.80;;;;;;;;;;4651698;30;20059;-65
2022/01/06 19:55:20;;;;;;;2.65;1.10;;;;;;;;;;4663775;30;20091;-66
2022/01/06 19:57:51;;;;;;;3.55;1.23;;;;;;;;;;4665171;30;20073;-64
2022/01/06 20:00:24;;;;;;;2.00;0.93;;;;;;;;;;4682036;30;20064;-67
2022/01/06 20:02:54;;;;;;;2.30;1.02;;;;;;;;;;4647812;30;20069;-67
2022/01/06 20:05:26;;;;;;;2.33;1.13;;;;;;;;;;4648059;30;20074;-67
2022/01/06 20:07:56;;;;;;;3.75;1.00;;;;;;;;;;4660325;30;20067;-65
2022/01/06 20:10:28;;;;;;;4.03;0.82;;;;;;;;;;4697788;30;20076;-65
2022/01/06 20:12:58;;;;;;;6.25;1.48;;;;;;;;;;4691758;30;20053;-67
2022/01/06 20:15:28;;;;;;;1.55;0.90;;;;;;;;;;4699156;30;20054;-66
2022/01/06 20:17:59;;;;;;;4.07;1.00;;;;;;;;;;4699483;30;20065;-68
2022/01/06 20:20:32;;;;;;;1.52;0.82;;;;;;;;;;4699463;30;20070;-67
2022/01/06 20:23:02;;;;;;;1.10;0.73;;;;;;;;;;4713300;30;20518;-70
2022/01/06 20:25:33;;;;;;;2.78;0.93;;;;;;;;;;4699215;30;20072;-66
2022/01/06 20:28:05;;;;;;;2.10;0.90;;;;;;;;;;4699378;30;20058;-68
2022/01/06 20:30:37;;;;;;;2.15;1.33;;;;;;;;;;4708647;30;20134;-69
2022/01/06 20:33:29;;;;;;;2.67;1.55;;;;;;;;;;4727813;30;20064;-70
2022/01/06 20:35:59;;;;;;;3.20;0.88;;;;;;;;;;4716634;30;20065;-68
2022/01/06 20:38:29;;;;;;;2.97;1.17;;;;;;;;;;4730430;30;20110;-66
2022/01/06 20:40:59;;;;;;;1.30;1.00;;;;;;;;;;4752507;30;20070;-67
2022/01/06 20:43:30;;;;;;;4.28;1.02;;;;;;;;;;4769117;30;20060;-69
2022/01/06 20:46:03;;;;;;;1.20;0.82;;;;;;;;;;4768825;30;20056;-67
2022/01/06 20:51:22;;;;;;;2.00;1.00;;;;;;;;;;4762137;30;20056;-67
2022/01/06 20:53:56;;;;;;;2.85;0.80;;;;;;;;;;4768915;30;20060;-67
2022/01/06 20:56:27;;;;;;;2.55;1.00;;;;;;;;;;4768870;30;20067;-67
2022/01/06 20:58:58;;;;;;;1.73;0.60;;;;;;;;;;4769114;30;20174;-67
2022/01/06 21:01:28;;;;;;;1.88;1.30;;;;;;;;;;4769052;30;20063;-68
2022/01/06 21:03:59;;;;;;;0.90;0.50;;;;;;;;;;4768236;30;20055;-66
2022/01/06 21:06:31;;;;;;;3.95;0.90;;;;;;;;;;4768379;30;20520;-68
2022/01/06 21:09:02;;;;;;;3.08;0.95;;;;;;;;;;4768602;30;20070;-68
2022/01/06 21:11:34;;;;;;;5.22;3.00;;;;;;;;;;4715616;30;20064;-68
2022/01/06 21:14:05;;;;;;;4.60;2.65;;;;;;;;;;4680730;30;20125;-67
2022/01/06 21:16:36;;;;;;;2.83;1.42;;;;;;;;;;4681093;30;20139;-68
2022/01/06 21:19:09;;;;;;;3.70;1.10;;;;;;;;;;4681172;30;20062;-67
2022/01/06 21:21:40;;;;;;;1.10;0.65;;;;;;;;;;4680901;30;20054;-67
2022/01/06 21:24:11;;;;;;;3.90;1.17;;;;;;;;;;4707228;30;20054;-68
2022/01/06 21:26:42;;;;;;;5.00;1.63;;;;;;;;;;4697906;30;20074;-67
2022/01/06 21:29:13;;;;;;;2.03;1.30;;;;;;;;;;4722457;30;20061;-69
2022/01/06 21:31:44;;;;;;;3.13;1.23;;;;;;;;;;4729542;30;20061;-68
2022/01/06 21:34:15;;;;;;;1.48;0.98;;;;;;;;;;4746876;30;20065;-67
2022/01/06 21:36:47;;;;;;;1.90;1.38;;;;;;;;;;4732817;30;20092;-67
2022/01/06 21:39:18;;;;;;;3.67;0.88;;;;;;;;;;4718672;30;20060;-67
2022/01/06 21:41:49;;;;;;;3.45;1.45;;;;;;;;;;4707862;30;20503;-68
2022/01/06 21:44:19;;;;;;;1.10;0.80;;;;;;;;;;4718303;30;20095;-66
2022/01/06 21:46:50;;;;;;;1.90;1.15;;;;;;;;;;4732721;30;20068;-67
2022/01/06 21:49:20;;;;;;;3.22;1.00;;;;;;;;;;4717844;30;20494;-67
2022/01/06 21:51:50;;;;;;;1.30;1.08;;;;;;;;;;4727552;30;20052;-68
2022/01/06 21:54:20;;;;;;;3.30;0.90;;;;;;;;;;4750043;30;20056;-69
2022/01/06 21:56:52;;;;;;;2.65;0.80;;;;;;;;;;4750026;30;20087;-68
2022/01/06 21:59:23;;;;;;;6.13;1.73;;;;;;;;;;4749571;30;20161;-68
2022/01/06 22:01:56;;;;;;;3.15;1.30;;;;;;;;;;4768799;29;20059;-66
2022/01/06 22:04:28;;;;;;;3.00;0.98;;;;;;;;;;4785272;29;20051;-67
2022/01/06 22:06:59;;;;;;;5.03;1.20;;;;;;;;;;4785388;29;20163;-68
2022/01/06 22:09:29;;;;;;;3.38;1.33;;;;;;;;;;4767171;30;20051;-67
2022/01/06 22:11:59;;;;;;;5.15;0.90;;;;;;;;;;4730445;30;20138;-68
2022/01/06 22:14:30;;;;;;;1.88;0.70;;;;;;;;;;4714320;30;20391;-69
2022/01/06 22:17:01;;;;;;;3.75;1.45;;;;;;;;;;4714640;30;20069;-68
2022/01/06 22:19:31;;;;;;;2.88;1.17;;;;;;;;;;4713510;30;20057;-69
2022/01/06 22:22:03;;;;;;;3.35;1.17;;;;;;;;;;4714471;30;20570;-68
2022/01/06 22:24:34;;;;;;;5.28;1.90;;;;;;;;;;4714367;30;20065;-68
2022/01/06 22:27:05;;;;;;;4.90;1.30;;;;;;;;;;4714419;30;20061;-69
2022/01/06 22:29:35;;;;;;;2.35;1.33;;;;;;;;;;4714331;30;20057;-66
2022/01/06 22:32:06;;;;;;;5.38;1.45;;;;;;;;;;4685204;30;20540;-68
2022/01/06 22:34:37;;;;;;;5.65;1.38;;;;;;;;;;4714156;30;20073;-67
2022/01/06 22:37:09;;;;;;;2.90;1.30;;;;;;;;;;4687681;30;20065;-66
2022/01/06 22:39:39;;;;;;;7.00;1.83;;;;;;;;;;4693681;30;20196;-68
2022/01/06 22:42:10;;;;;;;2.40;1.30;;;;;;;;;;4691076;30;20442;-67
2022/01/06 22:44:41;;;;;;;3.55;1.40;;;;;;;;;;4696861;30;20550;-69
2022/01/06 22:47:13;;;;;;;10.95;2.10;;;;;;;;;;4677406;30;20506;-68
2022/01/06 22:49:43;;;;;;;6.80;2.38;;;;;;;;;;4705636;30;20068;-67